Time;durP1;ratioP1;P1;durP2;ratioP2;P2;SDS_P1;SDS_P2;PMS_P1;PMS_P2;Temp;Humidity;BMP_temperature;BMP_pressure;BME280_temperature;BME280_humidity;BME280_pressure;Samples;Min_cycle;Max_cycle;Signal;HPM_P1;HPM_P2
2022/08/13 00:02:02;;;;;;;;;;;;;;;23.85;59.84;100024.84;5091851;28;20028;-74
2022/08/13 00:04:27;;;;;;;20.65;11.85;;;;;;;23.82;60.51;100030.19;5090980;28;19968;-74
2022/08/13 00:07:08;;;;;;;14.25;11.45;;;;;;;23.75;60.99;100017.19;5090893;28;20028;-73
2022/08/13 00:09:37;;;;;;;24.13;12.30;;;;;;;23.82;61.34;100030.19;5090314;28;20085;-74
2022/08/13 00:14:50;;;;;;;16.27;11.27;;;;;;;23.69;61.48;100016.44;5090970;28;20452;-72
2022/08/13 00:17:17;;;;;;;20.15;12.50;;;;;;;23.42;62.49;99982.81;5091066;28;20024;-72
2022/08/13 00:19:47;;;;;;;21.27;11.77;;;;;;;23.60;62.10;100017.53;5090793;28;20050;-72
2022/08/13 00:22:12;;;;;;;;;;;;;;;23.56;62.43;100019.41;5072899;28;20062;-75
2022/08/13 00:24:38;;;;;;;21.27;11.80;;;;;;;23.21;63.38;99981.56;5090809;28;19912;-76
2022/08/13 00:27:05;;;;;;;19.17;12.75;;;;;;;23.30;63.01;100016.50;5090716;28;20016;-74
2022/08/13 00:29:31;;;;;;;24.20;12.40;;;;;;;23.31;63.44;100016.47;5090416;28;20031;-75
2022/08/13 00:31:56;;;;;;;15.43;12.23;;;;;;;23.24;63.13;100020.13;5068965;28;20059;-71
2022/08/13 00:34:22;;;;;;;20.08;12.35;;;;;;;23.19;63.07;100020.25;5073992;28;20024;-75
2022/08/13 00:36:48;;;;;;;13.20;11.38;;;;;;;23.28;62.48;100019.19;5069078;28;20399;-80
2022/08/13 00:39:15;;;;;;;18.92;12.15;;;;;;;23.29;62.17;100012.13;5053014;28;20024;-74
2022/08/13 00:41:46;;;;;;;16.27;11.85;;;;;;;23.33;62.94;100016.41;5070477;28;20025;-74
2022/08/13 00:44:16;;;;;;;19.63;12.73;;;;;;;23.34;63.40;100012.88;5072223;28;20024;-76
2022/08/13 00:46:43;;;;;;;18.08;12.23;;;;;;;23.33;63.59;100005.88;5090501;28;20119;-74
2022/08/13 00:49:10;;;;;;;19.30;12.73;;;;;;;23.18;64.10;100001.81;5090707;28;20474;-73
2022/08/13 00:51:56;;;;;;;23.17;12.82;;;;;;;23.24;65.01;100015.75;5027775;28;20064;-73
2022/08/13 00:54:22;;;;;;;20.60;12.38;;;;;;;23.21;65.67;99980.72;5027921;28;20411;-72
2022/08/13 00:56:48;;;;;;;17.77;12.50;;;;;;;23.04;66.53;99947.72;5027854;28;20053;-71
2022/08/13 00:59:14;;;;;;;18.10;12.25;;;;;;;23.31;67.83;100010.34;5027756;28;20045;-74
2022/08/13 01:01:42;;;;;;;19.20;13.75;;;;;;;23.17;67.76;99992.22;5027557;28;20041;-74
2022/08/13 01:04:09;;;;;;;20.85;12.93;;;;;;;23.33;68.67;100013.78;5027537;28;20033;-73
2022/08/13 01:06:35;;;;;;;20.13;13.00;;;;;;;23.17;68.86;99986.97;5025215;28;20049;-73
2022/08/13 01:09:04;;;;;;;23.60;14.00;;;;;;;23.07;68.68;99973.94;5027685;28;20144;-74
2022/08/13 01:11:34;;;;;;;;;;;;;;;23.17;69.90;100010.66;5028182;28;20048;-75
2022/08/13 01:14:03;;;;;;;18.95;12.75;;;;;;;23.16;69.90;100006.28;5027611;28;19913;-73
2022/08/13 01:16:36;;;;;;;23.52;13.25;;;;;;;23.13;70.14;100003.66;5010772;28;20029;-75
2022/08/13 01:19:09;;;;;;;17.98;13.15;;;;;;;23.15;70.98;100004.50;5027532;28;20036;-72
2022/08/13 01:21:39;;;;;;;18.42;13.38;;;;;;;23.17;71.05;100005.41;5008812;28;20042;-78
2022/08/13 01:24:06;;;;;;;26.23;13.18;;;;;;;23.07;71.64;100000.28;5034358;28;20080;-71
2022/08/13 01:26:32;;;;;;;18.85;12.82;;;;;;;22.93;72.42;100013.75;5053602;28;20025;-72
2022/08/13 01:29:04;;;;;;;22.17;14.15;;;;;;;22.86;72.22;100008.66;5053447;28;20032;-73
2022/08/13 01:31:31;;;;;;;27.33;13.02;;;;;;;22.89;71.25;100000.69;5053572;28;20033;-73
2022/08/13 01:33:59;;;;;;;25.38;13.15;;;;;;;23.09;70.71;100003.75;5053346;28;20552;-73
2022/08/13 01:36:26;;;;;;;25.30;12.90;;;;;;;23.12;70.65;99994.91;5053497;28;20029;-72
2022/08/13 01:38:52;;;;;;;23.15;14.25;;;;;;;23.12;70.91;99991.44;5053550;28;20399;-75
2022/08/13 01:41:18;;;;;;;24.00;13.73;;;;;;;22.93;70.51;99960.25;5053347;28;20038;-75
2022/08/13 01:43:44;;;;;;;20.27;13.40;;;;;;;23.08;70.26;99988.00;5053422;28;20542;-71
2022/08/13 01:46:11;;;;;;;20.00;13.23;;;;;;;23.01;70.87;99987.25;5053490;28;20112;-74
2022/08/13 01:51:34;;;;;;;25.60;12.65;;;;;;;22.75;71.82;99990.44;5077707;28;20437;-74
2022/08/13 01:54:01;;;;;;;19.17;13.45;;;;;;;22.72;72.73;99991.38;5030515;28;20037;-73
2022/08/13 01:56:28;;;;;;;21.10;14.20;;;;;;;22.70;72.66;99985.28;5030903;28;20483;-78
2022/08/13 01:58:57;;;;;;;19.20;13.65;;;;;;;22.77;72.43;99983.41;5030932;28;20037;-71
2022/08/13 02:01:25;;;;;;;18.80;13.80;;;;;;;22.64;73.41;99972.25;5031153;28;20762;-70
2022/08/13 02:03:56;;;;;;;23.83;14.45;;;;;;;22.68;73.54;99975.69;5030657;28;20076;-74
2022/08/13 02:06:26;;;;;;;17.85;13.90;;;;;;;22.70;73.58;99987.91;5030465;28;20045;-70
2022/08/13 02:08:57;;;;;;;24.83;13.68;;;;;;;22.52;74.68;99988.28;5030658;28;20030;-74
2022/08/13 02:11:23;;;;;;;24.42;14.43;;;;;;;22.43;73.86;99979.69;5013865;28;20049;-73
2022/08/13 02:13:52;;;;;;;27.50;14.93;;;;;;;22.51;73.95;99979.53;5030638;28;20159;-72
2022/08/13 02:16:18;;;;;;;24.90;14.33;;;;;;;22.51;73.86;99976.06;5030505;28;20195;-75
2022/08/13 02:18:51;;;;;;;21.52;14.35;;;;;;;22.48;74.84;99971.72;5014026;28;20786;-77
2022/08/13 02:21:19;;;;;;;24.52;14.73;;;;;;;22.45;74.97;99975.28;5030241;28;20036;-72
2022/08/13 02:24:03;;;;;;;18.13;13.98;;;;;;;22.52;74.40;99973.38;5030239;28;20113;-74
2022/08/13 02:26:29;;;;;;;22.13;14.18;;;;;;;22.39;74.74;99975.41;5030157;28;20033;-72
2022/08/13 02:28:57;;;;;;;22.73;13.68;;;;;;;22.37;73.66;99974.56;5013552;28;20083;-76
2022/08/13 02:31:23;;;;;;;23.55;13.70;;;;;;;22.38;73.68;99972.78;5059599;28;20078;-75
2022/08/13 02:33:50;;;;;;;24.02;14.70;;;;;;;22.35;73.54;99960.53;5092306;28;20040;-73
2022/08/13 02:36:20;;;;;;;32.03;15.30;;;;;;;22.39;73.82;99962.25;5092963;28;20028;-71
2022/08/13 02:39:01;;;;;;;30.77;14.57;;;;;;;22.37;73.88;99969.31;5092583;28;20129;-74
2022/08/13 02:41:43;;;;;;;23.58;15.30;;;;;;;22.43;73.99;99966.56;5092329;28;20051;-72
2022/08/13 02:44:11;;;;;;;19.30;15.05;;;;;;;22.03;73.77;99906.84;5081416;28;20541;-72
2022/08/13 02:46:39;;;;;;;20.48;14.65;;;;;;;22.44;73.28;99963.03;5072109;28;20078;-74
2022/08/13 02:49:04;;;;;;;22.42;14.60;;;;;;;22.14;73.17;99927.63;5072225;28;20049;-71
2022/08/13 02:51:31;;;;;;;28.15;15.38;;;;;;;22.27;72.34;99960.69;5072010;28;20053;-73
2022/08/13 02:53:59;;;;;;;34.00;15.75;;;;;;;22.20;70.98;99966.97;5071787;28;20402;-71
2022/08/13 02:56:26;;;;;;;30.20;15.93;;;;;;;21.95;70.48;99924.50;5053820;28;20052;-71
2022/08/13 02:58:52;;;;;;;37.17;15.73;;;;;;;22.04;70.83;99969.00;5071817;28;20498;-74
2022/08/13 03:01:18;;;;;;;29.52;14.77;;;;;;;21.85;71.75;99971.09;5071838;28;20029;-71
2022/08/13 03:03:44;;;;;;;31.65;14.95;;;;;;;21.82;71.54;99976.44;5071687;28;20078;-72
2022/08/13 03:06:11;;;;;;;23.73;15.30;;;;;;;21.65;71.80;99981.97;5071803;28;20425;-74
2022/08/13 03:08:37;;;;;;;33.03;15.55;;;;;;;21.43;72.33;99969.16;5071657;28;20113;-72
2022/08/13 03:11:03;;;;;;;27.83;15.85;;;;;;;21.36;73.09;99970.13;5071484;28;20078;-74
2022/08/13 03:13:36;;;;;;;32.67;15.70;;;;;;;21.01;73.59;99937.41;5071809;28;20020;-71
2022/08/13 03:16:03;;;;;;;36.88;15.38;;;;;;;21.12;74.53;99980.13;5071593;28;20757;-76
2022/08/13 03:18:30;;;;;;;23.90;14.65;;;;;;;21.15;74.63;99982.69;5071593;28;20058;-78
2022/08/13 03:20:55;;;;;;;23.48;15.32;;;;;;;21.17;74.52;99988.78;5071249;28;20127;-73
2022/08/13 03:23:23;;;;;;;23.35;15.07;;;;;;;21.21;74.77;99991.34;5071208;28;20525;-72
2022/08/13 03:25:49;;;;;;;22.80;15.45;;;;;;;21.15;74.81;99981.81;5071565;28;20082;-70
2022/08/13 03:28:14;;;;;;;20.77;15.05;;;;;;;21.13;74.79;99970.47;5071545;28;20033;-74
2022/08/13 03:30:41;;;;;;;22.48;15.68;;;;;;;21.29;74.37;99992.13;5071216;28;20039;-71
2022/08/13 03:33:13;;;;;;;21.75;15.77;;;;;;;21.32;74.48;99995.56;5071364;28;20032;-72
2022/08/13 03:35:39;;;;;;;20.08;15.50;;;;;;;21.28;74.75;99990.38;5071263;28;20029;-71
2022/08/13 03:38:10;;;;;;;24.65;15.80;;;;;;;21.09;75.20;99969.66;5071218;28;20452;-71
2022/08/13 03:43:21;;;;;;;19.02;15.35;;;;;;;21.28;75.46;100011.38;5071058;28;20027;-72
2022/08/13 03:45:47;;;;;;;22.30;15.68;;;;;;;21.30;75.14;100002.59;5070332;28;20498;-70
2022/08/13 03:48:14;;;;;;;22.02;15.55;;;;;;;21.35;75.17;100013.03;5070900;28;20030;-73
2022/08/13 03:50:44;;;;;;;21.25;15.48;;;;;;;21.33;74.74;100005.19;5070732;28;20148;-71
2022/08/13 03:53:12;;;;;;;21.90;15.63;;;;;;;21.42;75.00;100019.94;5035327;28;20097;-71
2022/08/13 03:55:39;;;;;;;20.42;14.85;;;;;;;21.37;75.70;100021.75;5070983;28;20036;-70
2022/08/13 03:58:10;;;;;;;19.75;15.75;;;;;;;21.25;76.67;100009.66;5070772;28;20303;-74
2022/08/13 04:00:40;;;;;;;21.92;15.52;;;;;;;21.34;76.24;100024.41;5073218;28;20120;-75
2022/08/13 04:03:16;;;;;;;22.02;14.95;;;;;;;21.41;75.37;100028.69;5081406;28;20060;-75
2022/08/13 04:05:41;;;;;;;18.98;15.45;;;;;;;21.45;75.63;100021.66;5080711;28;20081;-74
2022/08/13 04:08:08;;;;;;;20.33;14.43;;;;;;;21.26;73.59;99958.03;5043702;28;20044;-76
2022/08/13 04:10:33;;;;;;;22.48;16.13;;;;;;;21.65;74.84;100021.38;5081274;28;20154;-79
2022/08/13 04:12:59;;;;;;;25.55;15.05;;;;;;;21.43;74.85;99987.53;5080430;28;20633;-75
2022/08/13 04:15:25;;;;;;;20.77;16.60;;;;;;;21.74;74.35;100007.22;5078248;28;20040;-72
2022/08/13 04:17:51;;;;;;;20.25;15.90;;;;;;;21.87;74.60;100013.13;5090173;28;20030;-72
2022/08/13 04:20:16;;;;;;;24.00;15.82;;;;;;;21.87;75.46;100013.13;5090832;28;20035;-77
2022/08/13 04:22:41;;;;;;;20.00;16.05;;;;;;;21.85;75.72;100007.91;5089624;28;20024;-73
2022/08/13 04:25:08;;;;;;;19.33;16.02;;;;;;;21.94;76.88;100015.63;5082946;28;20496;-74
2022/08/13 04:27:34;;;;;;;24.40;17.35;;;;;;;21.97;75.82;100012.94;5070322;28;20024;-76
2022/08/13 04:30:04;;;;;;;25.30;16.80;;;;;;;21.90;76.51;100007.81;5070220;28;20038;-74
2022/08/13 04:32:31;;;;;;;26.73;17.67;;;;;;;21.89;76.48;100008.72;5070522;28;20025;-75
2022/08/13 04:34:56;;;;;;;25.42;17.63;;;;;;;21.85;75.56;100000.00;5070466;28;20037;-72
2022/08/13 04:37:22;;;;;;;22.25;16.60;;;;;;;21.98;75.25;100021.69;5070687;28;20035;-76
2022/08/13 04:39:52;;;;;;;20.63;16.67;;;;;;;22.00;75.08;100009.38;5034829;28;20037;-74
2022/08/13 04:42:18;;;;;;;23.05;17.48;;;;;;;22.06;76.03;100022.41;5070256;28;20025;-73
2022/08/13 04:44:43;;;;;;;25.35;17.58;;;;;;;22.08;75.77;100017.13;5070226;28;20025;-75
2022/08/13 04:47:09;;;;;;;22.27;17.25;;;;;;;22.13;75.34;100023.16;5070549;28;20021;-73
2022/08/13 04:49:34;;;;;;;25.10;18.08;;;;;;;22.17;74.78;100013.47;5069141;28;20513;-71
2022/08/13 04:52:00;;;;;;;21.17;17.40;;;;;;;22.20;75.53;100021.31;5070258;28;20449;-72
2022/08/13 04:54:28;;;;;;;23.98;18.13;;;;;;;22.22;75.72;100020.38;5070339;28;20032;-72
2022/08/13 04:56:54;;;;;;;36.08;19.25;;;;;;;22.32;76.42;100015.84;5073657;28;20035;-74
2022/08/13 04:59:22;;;;;;;31.98;18.98;;;;;;;22.38;75.84;100015.75;5074163;28;20177;-72
2022/08/13 05:01:48;;;;;;;27.58;18.50;;;;;;;22.40;74.85;99998.16;5074324;28;20086;-71
2022/08/13 05:04:15;;;;;;;27.38;17.17;;;;;;;22.48;73.24;100010.28;5074214;28;20036;-73
2022/08/13 05:06:42;;;;;;;28.65;17.92;;;;;;;22.55;73.25;100015.41;5074114;28;20031;-73
2022/08/13 05:09:08;;;;;;;28.13;18.02;;;;;;;22.54;73.29;100015.44;5074145;28;20033;-73
2022/08/13 05:11:33;;;;;;;29.20;18.13;;;;;;;22.37;74.43;99974.56;5074082;28;20039;-73
2022/08/13 05:13:59;;;;;;;33.90;18.98;;;;;;;22.22;73.95;99948.50;5073935;28;20101;-75
2022/08/13 05:16:25;;;;;;;31.00;19.00;;;;;;;22.63;74.45;100023.16;5074268;28;20028;-75
2022/08/13 05:18:54;;;;;;;27.95;18.40;;;;;;;22.61;73.82;100010.00;5073725;28;20031;-73
2022/08/13 05:21:22;;;;;;;21.58;17.25;;;;;;;22.60;74.02;100010.06;5073971;28;20060;-74
2022/08/13 05:23:55;;;;;;;26.90;17.50;;;;;;;22.63;75.04;100007.38;5073754;28;20111;-74
2022/08/13 05:26:25;;;;;;;23.63;17.42;;;;;;;22.46;74.58;99973.50;5073643;28;20059;-74
2022/08/13 05:28:51;;;;;;;29.33;18.05;;;;;;;22.77;73.62;100002.69;5073860;28;20032;-74
2022/08/13 05:31:17;;;;;;;22.60;17.27;;;;;;;22.85;73.08;100004.28;5073797;28;20028;-73
2022/08/13 05:33:44;;;;;;;27.63;17.50;;;;;;;23.00;74.40;99997.81;5073770;28;20073;-72
2022/08/13 05:36:10;;;;;;;22.75;17.30;;;;;;;23.06;75.28;99995.91;5073591;28;20025;-75
2022/08/13 05:38:37;;;;;;;24.75;18.08;;;;;;;22.94;74.58;99989.16;5073337;28;20032;-73
2022/08/13 05:41:04;;;;;;;24.48;17.63;;;;;;;22.99;75.26;99990.81;5073288;28;20078;-74
2022/08/13 05:43:38;;;;;;;27.70;17.52;;;;;;;22.96;75.79;99986.50;5055588;28;20036;-73
2022/08/13 05:46:09;;;;;;;23.30;17.23;;;;;;;22.99;76.70;99978.53;5073429;28;20050;-74
2022/08/13 05:48:42;;;;;;;24.98;17.65;;;;;;;23.10;77.58;99988.81;5073409;28;20046;-74
2022/08/13 05:51:10;;;;;;;23.52;17.60;;;;;;;23.19;76.17;99982.50;5073319;28;20060;-76
2022/08/13 05:53:37;;;;;;;22.75;17.23;;;;;;;23.30;76.58;99980.47;5073089;28;20043;-74
2022/08/13 05:56:04;;;;;;;30.10;17.20;;;;;;;23.16;75.83;99951.00;5073136;28;20028;-74
2022/08/13 05:58:29;;;;;;;25.83;17.20;;;;;;;23.43;74.59;99975.81;5073338;28;20032;-73
2022/08/13 06:03:40;;;;;;;31.50;17.48;;;;;;;23.38;74.32;99939.03;5072922;28;20089;-74
2022/08/13 06:06:10;;;;;;;26.40;17.83;;;;;;;23.64;75.74;99978.81;5072972;28;20025;-74
2022/08/13 06:08:39;;;;;;;32.35;17.17;;;;;;;23.63;74.01;99975.31;5072193;28;20029;-76
2022/08/13 06:11:17;;;;;;;35.13;18.40;;;;;;;23.66;74.14;99977.84;5073175;28;20486;-73
2022/08/13 06:13:45;;;;;;;67.28;20.55;;;;;;;23.74;74.32;99972.41;5072985;28;20029;-76
2022/08/13 06:16:13;;;;;;;55.20;20.27;;;;;;;23.85;72.54;99972.13;5053823;28;20032;-73
2022/08/13 06:18:43;;;;;;;61.67;20.58;;;;;;;23.98;73.17;99954.25;5072835;28;20102;-76
2022/08/13 06:21:11;;;;;;;77.28;38.17;;;;;;;24.08;72.53;99965.44;5072891;28;20028;-76
2022/08/13 06:23:38;;;;;;;41.92;22.23;;;;;;;24.27;72.76;99971.06;5072756;28;20033;-73
2022/08/13 06:26:06;;;;;;;60.83;39.13;;;;;;;24.39;74.31;99971.56;5072686;28;20063;-74
2022/08/13 06:28:33;;;;;;;30.65;16.48;;;;;;;24.60;73.82;99961.31;5054792;28;20024;-79
2022/08/13 06:31:05;;;;;;;32.30;15.90;;;;;;;24.86;69.59;99957.03;5054214;28;20117;-76
2022/08/13 06:33:32;;;;;;;30.70;15.30;;;;;;;24.88;68.38;99928.81;5072691;28;20033;-76
2022/08/13 06:36:05;;;;;;;29.73;14.82;;;;;;;25.24;66.78;99954.97;5054874;28;20028;-75
2022/08/13 06:38:49;;;;;;;29.10;14.45;;;;;;;25.35;66.97;99949.38;5072505;28;20032;-74
2022/08/13 06:41:15;;;;;;;26.38;14.07;;;;;;;25.51;67.50;99955.03;5072511;28;20028;-76
2022/08/13 06:43:48;;;;;;;19.95;13.32;;;;;;;25.64;63.65;99951.03;5054119;28;20402;-73
2022/08/13 06:46:16;;;;;;;17.67;12.57;;;;;;;25.76;63.04;99946.28;5036584;28;20047;-74
2022/08/13 06:48:42;;;;;;;21.17;13.20;;;;;;;25.87;63.03;99952.06;5072597;28;20420;-72
2022/08/13 06:51:10;;;;;;;25.45;13.35;;;;;;;25.99;65.86;99951.63;5072247;28;20478;-72
2022/08/13 06:53:38;;;;;;;30.45;15.55;;;;;;;26.06;61.85;99951.44;5072138;28;20024;-79
2022/08/13 06:56:17;;;;;;;18.23;13.57;;;;;;;26.14;61.07;99941.44;5071906;28;20025;-72
2022/08/13 06:58:45;;;;;;;;;;;;;;;26.18;60.95;99937.75;5072619;28;20029;-79
2022/08/13 07:01:15;;;;;;;17.77;12.85;;;;;;;26.20;61.57;99943.88;5072004;28;19908;-73
2022/08/13 07:03:41;;;;;;;17.83;13.93;;;;;;;26.18;61.89;99944.84;5053897;28;20119;-72
2022/08/13 07:06:17;;;;;;;25.75;14.32;;;;;;;25.92;61.92;99907.81;5071891;28;20546;-75
2022/08/13 07:08:45;;;;;;;22.35;13.65;;;;;;;26.13;61.39;99939.69;5071758;28;20032;-72
2022/08/13 07:11:23;;;;;;;20.10;13.60;;;;;;;26.21;61.80;99944.75;5072009;28;20058;-74
2022/08/13 07:13:55;;;;;;;19.63;13.55;;;;;;;26.24;60.98;99944.63;5071837;28;20032;-73
2022/08/13 07:16:23;;;;;;;98.13;68.13;;;;;;;26.25;62.92;99941.91;5071534;28;20760;-72
2022/08/13 07:18:50;;;;;;;27.92;16.33;;;;;;;26.29;61.40;99937.38;5071148;28;20103;-75
2022/08/13 07:21:20;;;;;;;24.73;15.23;;;;;;;26.34;63.47;99934.56;5071770;28;20040;-73
2022/08/13 07:23:48;;;;;;;34.80;18.85;;;;;;;26.38;62.58;99931.75;5052474;28;20095;-73
2022/08/13 07:26:16;;;;;;;28.15;17.20;;;;;;;26.33;63.18;99923.09;5071732;28;20028;-74
2022/08/13 07:28:44;;;;;;;154.38;91.03;;;;;;;26.31;61.97;99925.81;5071438;28;20387;-76
2022/08/13 07:31:11;;;;;;;27.65;18.90;;;;;;;26.36;61.64;99922.16;5071317;28;20200;-71
2022/08/13 07:33:39;;;;;;;23.40;14.35;;;;;;;26.44;61.11;99923.59;5071055;28;20047;-74
2022/08/13 07:36:14;;;;;;;26.40;15.00;;;;;;;26.60;63.26;99915.91;5071397;28;20093;-76
2022/08/13 07:38:41;;;;;;;25.23;14.60;;;;;;;26.72;59.97;99911.06;5071229;28;20029;-75
2022/08/13 07:41:10;;;;;;;18.92;15.05;;;;;;;26.91;63.70;99922.69;5053325;28;20029;-72
2022/08/13 07:43:39;;;;;;;23.48;14.00;;;;;;;27.04;62.44;99924.84;5071159;28;20035;-71
2022/08/13 07:46:11;;;;;;;30.90;15.15;;;;;;;27.07;59.34;99916.78;5071089;28;20083;-72
2022/08/13 07:48:42;;;;;;;30.80;14.05;;;;;;;27.08;58.27;99911.41;5071079;28;20024;-75
2022/08/13 07:51:18;;;;;;;25.70;13.38;;;;;;;27.01;57.86;99886.09;5071233;28;20071;-75
2022/08/13 07:53:45;;;;;;;26.83;13.65;;;;;;;27.35;60.30;99916.47;5070822;28;20039;-72
2022/08/13 07:56:10;;;;;;;26.90;13.90;;;;;;;27.36;57.72;99912.06;5070834;28;20029;-72
2022/08/13 07:58:36;;;;;;;31.48;13.98;;;;;;;27.38;56.65;99908.41;5070883;28;20021;-72
2022/08/13 08:01:04;;;;;;;19.63;12.13;;;;;;;27.48;56.33;99900.97;5070807;28;20490;-73
2022/08/13 08:03:33;;;;;;;27.80;12.68;;;;;;;27.41;55.50;99899.50;5070893;28;20020;-76
2022/08/13 08:05:59;;;;;;;26.67;13.40;;;;;;;27.55;55.46;99901.56;5071297;28;20056;-76
2022/08/13 08:08:28;;;;;;;23.88;13.45;;;;;;;27.59;55.98;99900.50;5035175;28;20275;-73
2022/08/13 08:10:57;;;;;;;13.53;12.13;;;;;;;27.48;57.11;99897.44;5070740;28;20024;-77
2022/08/13 08:13:24;;;;;;;19.73;11.95;;;;;;;27.35;55.92;99865.28;5070509;28;20255;-78
2022/08/13 08:15:50;;;;;;;17.63;12.10;;;;;;;27.40;54.11;99890.69;5070752;28;20040;-77
2022/08/13 08:18:15;;;;;;;20.02;12.68;;;;;;;27.34;56.63;99887.41;5070793;28;20490;-73
2022/08/13 08:20:42;;;;;;;20.45;11.90;;;;;;;27.33;55.79;99890.97;5070620;28;20059;-74
2022/08/13 08:23:09;;;;;;;19.88;13.40;;;;;;;27.18;57.02;99858.91;5070425;28;20017;-73
2022/08/13 08:25:36;;;;;;;16.48;13.05;;;;;;;27.21;56.20;99895.00;5070455;28;20606;-74
2022/08/13 08:28:02;;;;;;;19.90;14.25;;;;;;;27.29;57.00;99888.47;5070694;28;20030;-75
2022/08/13 08:30:27;;;;;;;18.67;13.65;;;;;;;27.36;57.30;99886.41;5078371;28;20032;-79
2022/08/13 08:32:53;;;;;;;16.02;12.98;;;;;;;27.35;55.20;99886.47;5090662;28;20028;-74
2022/08/13 08:35:22;;;;;;;16.80;12.88;;;;;;;27.39;55.14;99885.41;5081960;28;20478;-73
2022/08/13 08:43:34;;;;;;;15.32;12.20;;;;;;;27.65;55.44;99849.84;5066876;28;20059;-81
2022/08/13 08:46:05;;;;;;;15.25;12.32;;;;;;;27.97;58.46;99866.13;5071124;28;20022;-80
2022/08/13 08:48:32;;;;;;;19.65;12.40;;;;;;;27.99;52.93;99874.00;5091947;28;20032;-78
2022/08/13 08:50:59;;;;;;;17.27;11.98;;;;;;;27.94;53.38;99837.09;5082186;28;20047;-76
2022/08/13 08:53:27;;;;;;;13.98;11.30;;;;;;;28.23;53.67;99856.16;5086299;28;20115;-82
2022/08/13 08:55:53;;;;;;;16.60;12.07;;;;;;;28.31;52.64;99861.09;5090132;28;20037;-81
2022/08/13 08:58:19;;;;;;;18.45;12.10;;;;;;;28.22;51.92;99844.66;5071759;28;20035;-77
2022/08/13 09:00:47;;;;;;;13.98;11.27;;;;;;;28.33;50.27;99845.97;5089961;28;20020;-75
2022/08/13 09:03:18;;;;;;;16.23;12.05;;;;;;;28.36;54.16;99852.00;5089534;28;20028;-80
2022/08/13 09:05:47;;;;;;;18.92;11.30;;;;;;;28.48;49.56;99850.53;5093736;28;20050;-80
2022/08/13 09:08:16;;;;;;;13.52;10.60;;;;;;;28.68;50.47;99839.00;5090180;28;20028;-80
2022/08/13 09:10:44;;;;;;;16.70;10.88;;;;;;;28.78;50.27;99833.25;5089951;28;20614;-76
2022/08/13 09:13:19;;;;;;;13.87;10.80;;;;;;;28.75;47.25;99826.28;5089979;28;20031;-80
2022/08/13 09:15:46;;;;;;;17.25;11.52;;;;;;;29.07;46.85;99828.28;5089141;28;20420;-82
2022/08/13 09:18:12;;;;;;;16.23;10.82;;;;;;;28.93;46.23;99826.31;5052044;28;20028;-81
2022/08/13 09:20:38;;;;;;;14.05;11.50;;;;;;;29.26;48.33;99837.03;5085400;28;20031;-85
2022/08/13 09:23:07;;;;;;;15.18;10.90;;;;;;;29.52;48.85;99826.88;5066860;28;20028;-86
2022/08/13 09:25:48;;;;;;;17.33;11.05;;;;;;;29.70;47.45;99822.41;5067486;28;20048;-81
2022/08/13 09:28:23;;;;;;;15.30;10.93;;;;;;;29.74;47.17;99812.44;5066866;28;20033;-84
2022/08/13 09:30:50;;;;;;;16.38;11.05;;;;;;;29.83;45.74;99826.13;5066783;28;20566;-79
2022/08/13 09:33:22;;;;;;;16.33;10.77;;;;;;;29.97;43.33;99798.78;5067069;28;20106;-81
2022/08/13 09:35:50;;;;;;;15.40;10.45;;;;;;;30.13;42.20;99798.81;5066764;28;20041;-79
2022/08/13 09:38:18;;;;;;;15.88;10.85;;;;;;;30.25;43.32;99796.41;5066939;28;20078;-82
2022/08/13 09:40:56;;;;;;;16.00;9.98;;;;;;;30.40;43.80;99805.34;5049700;28;20128;-85
2022/08/13 09:43:28;;;;;;;27.80;11.13;;;;;;;30.46;42.24;99797.84;5068887;28;20020;-85
2022/08/13 09:45:54;;;;;;;15.02;10.23;;;;;;;30.55;40.60;99798.31;5070941;28;20028;-84
2022/08/13 09:48:20;;;;;;;15.02;10.63;;;;;;;30.60;40.05;99793.56;5053337;28;20105;-82
2022/08/13 09:50:46;;;;;;;16.55;10.73;;;;;;;30.54;40.29;99786.78;5053346;28;20080;-84
2022/08/13 09:53:12;;;;;;;15.45;10.68;;;;;;;30.73;39.70;99785.72;5052730;28;20107;-84
2022/08/13 09:55:39;;;;;;;12.77;10.40;;;;;;;30.62;39.43;99787.22;5053674;28;20087;-83
2022/08/13 09:58:04;;;;;;;13.40;10.25;;;;;;;30.81;41.93;99779.00;5070720;28;20078;-86
2022/08/13 10:00:33;;;;;;;14.60;10.15;;;;;;;31.02;39.11;99778.69;5061078;28;20036;-84
2022/08/13 10:03:07;;;;;;;11.45;9.20;;;;;;;30.78;39.50;99781.84;5072641;28;20104;-85
2022/08/13 10:05:34;;;;;;;13.70;10.35;;;;;;;30.78;38.84;99773.84;5064990;28;20091;-85
2022/08/13 10:08:04;;;;;;;15.95;10.48;;;;;;;30.76;38.93;99769.56;5061175;28;20479;-83
2022/08/13 10:10:30;;;;;;;12.02;9.75;;;;;;;30.68;40.31;99775.34;5051638;28;20032;-80
2022/08/13 10:12:57;;;;;;;11.73;9.82;;;;;;;30.58;40.63;99768.81;5052011;28;20453;-81
2022/08/13 10:15:23;;;;;;;11.07;9.98;;;;;;;30.51;40.62;99755.00;5053797;28;20040;-78
2022/08/13 10:17:55;;;;;;;11.30;10.07;;;;;;;30.80;42.13;99766.59;5051522;28;20025;-82
2022/08/13 10:20:29;;;;;;;10.85;9.63;;;;;;;30.74;38.65;99728.81;5051470;28;20404;-86
2022/08/13 10:22:55;;;;;;;12.30;9.85;;;;;;;31.01;38.84;99762.78;5050824;28;20032;-86
2022/08/13 10:25:24;;;;;;;11.40;9.55;;;;;;;31.07;39.57;99749.97;5073152;28;20036;-81
2022/08/13 10:27:50;;;;;;;18.60;11.23;;;;;;;31.23;40.63;99743.69;5070667;28;20063;-83
2022/08/13 10:30:25;;;;;;;14.15;9.98;;;;;;;31.35;39.96;99748.28;5068537;28;20309;-85
2022/08/13 10:32:55;;;;;;;13.60;9.75;;;;;;;31.12;37.43;99736.38;5070027;28;20024;-83
2022/08/13 10:35:28;;;;;;;14.45;9.32;;;;;;;31.12;37.31;99705.22;5051006;28;20056;-85
2022/08/13 10:37:56;;;;;;;18.38;9.70;;;;;;;31.29;36.30;99735.31;5052069;28;20029;-81
2022/08/13 10:40:24;;;;;;;16.25;9.38;;;;;;;31.42;34.83;99728.28;5071852;28;20024;-86
2022/08/13 10:42:52;;;;;;;10.43;8.82;;;;;;;31.46;33.96;99735.13;5072009;28;20036;-83
2022/08/13 10:45:19;;;;;;;10.93;9.57;;;;;;;31.60;36.82;99730.75;5071185;28;20025;-82
2022/08/13 10:47:50;;;;;;;12.65;8.90;;;;;;;31.65;36.07;99714.50;5071792;28;20563;-85
2022/08/13 10:50:18;;;;;;;25.98;10.25;;;;;;;32.01;33.64;99727.28;5074509;28;20056;-84
2022/08/13 10:52:44;;;;;;;15.15;9.63;;;;;;;32.30;34.00;99721.91;5073898;28;20455;-83
2022/08/13 10:55:12;;;;;;;11.25;8.75;;;;;;;32.45;33.36;99720.03;5090710;28;20035;-80
2022/08/13 10:57:43;;;;;;;12.38;7.95;;;;;;;32.08;33.64;99725.94;5091577;28;20026;-79
2022/08/13 11:00:11;;;;;;;12.18;9.07;;;;;;;32.06;34.08;99714.47;5091922;28;20401;-82
2022/08/13 11:02:37;;;;;;;15.82;9.68;;;;;;;32.15;33.59;99714.84;5091935;28;20047;-87
2022/08/13 11:05:05;;;;;;;13.45;9.85;;;;;;;32.35;35.84;99708.22;5091845;28;20428;-80
2022/08/13 11:07:32;;;;;;;10.70;9.35;;;;;;;32.62;33.25;99715.38;5068634;28;20028;-74
2022/08/13 11:09:59;;;;;;;14.48;9.25;;;;;;;32.81;33.13;99712.31;5070777;28;20107;-75
2022/08/13 11:12:24;;;;;;;10.82;8.63;;;;;;;32.83;32.18;99697.88;5070546;28;20538;-76
2022/08/13 11:14:51;;;;;;;11.70;8.00;;;;;;;32.79;31.00;99695.53;5070774;28;20103;-75
2022/08/13 11:17:20;;;;;;;11.55;8.23;;;;;;;32.77;30.98;99687.63;5070778;28;20028;-78
2022/08/13 11:19:48;;;;;;;12.90;7.75;;;;;;;32.73;30.02;99691.44;5075105;28;20402;-79
2022/08/13 11:22:15;;;;;;;11.77;8.37;;;;;;;33.04;29.13;99686.69;5070759;28;20031;-77
2022/08/13 11:24:41;;;;;;;10.43;7.55;;;;;;;33.25;29.17;99670.06;5070307;28;20474;-76
2022/08/13 11:27:07;;;;;;;10.68;7.50;;;;;;;33.23;29.15;99667.50;5070234;28;20028;-77
2022/08/13 11:29:32;;;;;;;12.32;8.60;;;;;;;33.45;28.63;99648.16;5070057;28;20024;-78
2022/08/13 11:31:57;;;;;;;13.43;8.18;;;;;;;33.83;28.66;99674.00;5078254;28;20089;-80
2022/08/13 11:34:25;;;;;;;11.85;8.55;;;;;;;33.89;28.14;99659.28;5091279;28;20051;-78
2022/08/13 11:36:51;;;;;;;14.10;7.93;;;;;;;34.14;27.76;99665.50;5073333;28;20031;-78
2022/08/13 11:39:17;;;;;;;9.23;7.32;;;;;;;34.35;26.07;99668.41;5090952;28;20057;-78